Time;durP1;ratioP1;P1;durP2;ratioP2;P2;SDS_P1;SDS_P2;PMS_P1;PMS_P2;Temp;Humidity;BMP_temperature;BMP_pressure;BME280_temperature;BME280_humidity;BME280_pressure;Samples;Min_cycle;Max_cycle;Signal;HPM_P1;HPM_P2
2022/10/09 06:57:49;;;;;;;8.82;4.13;;;;;;;10.37;62.97;97228.88;2082368;28;20569;-68
2022/10/09 06:58:55;;;;;;;10.90;4.13;;;;;;;10.10;64.33;97208.00;2082126;28;20263;-68
2022/10/09 06:59:56;;;;;;;6.90;3.60;;;;;;;10.15;64.33;97238.34;2078912;28;20276;-68
2022/10/09 07:01:06;;;;;;;6.85;3.80;;;;;;;10.37;64.26;97238.47;2082300;28;20283;-68
2022/10/09 07:02:08;;;;;;;6.80;3.90;;;;;;;10.01;65.80;97246.63;2077216;28;20305;-68
2022/10/09 07:03:09;;;;;;;10.05;4.38;;;;;;;10.62;64.55;97243.72;2073679;28;20205;-68
2022/10/09 07:15:46;;;;;;;166.63;91.38;;;;;;;12.91;59.33;97234.66;2090692;28;20603;-67
2022/10/09 07:22:02;;;;;;;6.07;3.33;;;;;;;14.26;56.99;97242.34;2080918;28;20201;-69
2022/10/09 07:23:07;;;;;;;6.93;3.88;;;;;;;14.21;56.68;97228.59;2079377;28;20220;-69
2022/10/09 07:24:10;;;;;;;6.45;3.20;;;;;;;13.68;57.02;97219.81;2081082;28;20292;-69
2022/10/09 07:25:11;;;;;;;6.93;3.28;;;;;;;13.92;57.27;97237.94;2082266;28;20351;-69
2022/10/09 07:26:19;;;;;;;6.53;3.45;;;;;;;14.05;57.23;97236.38;2079954;28;20239;-69
2022/10/09 07:27:21;;;;;;;7.10;4.00;;;;;;;14.46;56.67;97243.13;2068182;28;20240;-69
2022/10/09 07:28:24;;;;;;;6.07;3.05;;;;;;;14.11;56.79;97245.75;2076517;28;20204;-69
2022/10/09 07:29:25;;;;;;;7.28;3.38;;;;;;;14.94;55.34;97233.63;2082280;28;20200;-69
2022/10/09 07:30:27;;;;;;;4.18;2.88;;;;;;;15.76;54.32;97238.91;2082029;28;20287;-70
2022/10/09 07:31:28;;;;;;;7.05;3.13;;;;;;;15.10;54.38;97233.69;2084781;28;20291;-69
2022/10/09 07:32:29;;;;;;;6.82;3.05;;;;;;;15.35;54.99;97238.47;2079838;28;20650;-70
2022/10/09 07:33:35;;;;;;;6.00;2.80;;;;;;;16.06;53.44;97222.31;2081533;28;20234;-70
2022/10/09 07:34:36;;;;;;;6.65;2.80;;;;;;;16.14;52.63;97234.09;2079098;28;20279;-70
2022/10/09 07:35:38;;;;;;;4.63;2.08;;;;;;;15.14;54.56;97231.75;2083322;28;20217;-70
2022/10/09 07:36:39;;;;;;;4.20;2.08;;;;;;;14.53;56.64;97244.50;2080663;28;20735;-69
2022/10/09 07:37:40;;;;;;;5.40;2.20;;;;;;;15.82;53.65;97234.16;2076805;28;20310;-70
2022/10/09 07:38:43;;;;;;;2.83;1.95;;;;;;;15.92;53.80;97236.25;2083721;28;20299;-69
2022/10/09 07:39:44;;;;;;;5.63;2.45;;;;;;;15.52;54.76;97241.97;2077169;28;20307;-70
2022/10/09 07:40:45;;;;;;;3.72;2.15;;;;;;;15.54;55.81;97239.22;2079084;28;20292;-70
2022/10/09 07:41:50;;;;;;;7.63;2.47;;;;;;;14.70;57.81;97233.16;2068956;28;20232;-69
2022/10/09 07:42:51;;;;;;;6.05;2.65;;;;;;;14.48;59.28;97234.22;2084233;28;20205;-70
2022/10/09 07:43:53;;;;;;;10.68;2.53;;;;;;;13.93;60.47;97239.59;2082992;28;20283;-71
2022/10/09 07:44:54;;;;;;;4.97;2.80;;;;;;;14.00;58.89;97233.13;2082803;28;20196;-70
2022/10/09 07:46:00;;;;;;;4.40;2.22;;;;;;;15.46;56.02;97234.41;2082997;28;20891;-71
2022/10/09 07:52:04;;;;;;;4.25;2.15;;;;;;;15.91;55.00;97235.44;2081923;28;20180;-68
2022/10/09 07:53:07;;;;;;;6.15;2.58;;;;;;;16.25;54.26;97224.72;2080611;28;20248;-69
2022/10/09 07:54:13;;;;;;;8.05;2.67;;;;;;;15.71;55.96;97220.72;2080364;28;20228;-69
2022/10/09 07:55:14;;;;;;;5.85;2.17;;;;;;;14.50;58.88;97234.13;2084012;28;20225;-68
2022/10/09 07:56:21;;;;;;;8.20;2.15;;;;;;;14.99;58.60;97230.78;2085559;28;20559;-69
2022/10/09 07:57:22;;;;;;;18.55;4.43;;;;;;;14.88;59.82;97231.34;2073532;28;20311;-69
2022/10/09 07:58:24;;;;;;;9.15;2.75;;;;;;;14.71;59.03;97231.38;2081584;28;20203;-69
2022/10/09 07:59:26;;;;;;;5.18;2.92;;;;;;;14.13;60.06;97230.75;2081419;28;20288;-70
2022/10/09 08:00:27;;;;;;;5.18;2.63;;;;;;;14.80;59.71;97228.28;2081340;28;20201;-70
2022/10/09 08:01:31;;;;;;;5.25;2.95;;;;;;;13.92;60.82;97224.78;2079012;28;20198;-69
2022/10/09 08:02:32;;;;;;;17.10;3.13;;;;;;;14.64;60.85;97223.81;2078053;28;20710;-69
2022/10/09 08:03:35;;;;;;;7.63;3.08;;;;;;;15.56;57.77;97214.53;2079946;28;20720;-69
2022/10/09 08:04:37;;;;;;;6.40;3.05;;;;;;;14.83;59.23;97235.97;2081439;28;20284;-69
2022/10/09 08:05:38;;;;;;;7.97;2.92;;;;;;;15.41;57.96;97215.38;2082759;28;20281;-67
2022/10/09 08:06:40;;;;;;;6.30;3.25;;;;;;;14.60;58.88;97230.13;2083033;28;20258;-68
2022/10/09 08:07:41;;;;;;;7.18;2.90;;;;;;;14.57;59.51;97226.81;2078581;28;20246;-69
2022/10/09 08:08:43;;;;;;;13.43;2.95;;;;;;;14.44;60.39;97237.09;2088541;28;20307;-68
2022/10/09 08:09:44;;;;;;;10.20;3.38;;;;;;;15.12;58.93;97226.56;2082449;28;20235;-68
2022/10/09 08:16:04;;;;;;;6.03;2.28;;;;;;;15.09;58.73;97231.97;2074501;28;20578;-68
2022/10/09 08:17:05;;;;;;;8.60;2.80;;;;;;;14.93;58.67;97229.34;2082704;28;20279;-68
2022/10/09 08:18:08;;;;;;;7.07;3.00;;;;;;;14.25;59.38;97231.94;2083163;28;20228;-68
2022/10/09 08:19:09;;;;;;;10.60;2.97;;;;;;;13.53;62.51;97229.25;2082949;28;20253;-68
2022/10/09 08:20:11;;;;;;;9.73;2.97;;;;;;;14.00;61.36;97220.84;2082727;28;20288;-68
2022/10/09 08:21:16;;;;;;;10.98;3.00;;;;;;;13.65;62.50;97225.19;2082890;28;20205;-68
2022/10/09 08:29:07;;;;;;;6.00;2.88;;;;;;;14.66;59.06;97224.56;2080835;28;20216;-67
2022/10/09 08:30:08;;;;;;;10.55;3.10;;;;;;;14.94;58.02;97217.84;2077342;28;20276;-67
2022/10/09 08:31:15;;;;;;;10.65;4.35;;;;;;;15.96;57.04;97222.84;2076718;28;20253;-67
2022/10/09 08:32:20;;;;;;;8.52;3.25;;;;;;;16.91;54.57;97214.69;2074367;28;20228;-67
2022/10/09 08:33:23;;;;;;;11.40;3.17;;;;;;;16.13;56.04;97219.22;2076158;28;20340;-68
2022/10/09 08:41:20;;;;;;;7.07;2.65;;;;;;;16.26;54.94;97222.00;2072084;28;20264;-67
2022/10/09 08:42:35;;;;;;;6.40;3.00;;;;;;;16.08;55.82;97188.84;2066655;28;20873;-67
2022/10/09 08:43:43;;;;;;;18.45;4.53;;;;;;;17.48;52.07;97218.22;2073535;28;20202;-67
2022/10/09 08:44:47;;;;;;;16.95;3.40;;;;;;;18.96;48.50;97215.53;2071601;28;20285;-68
2022/10/09 08:45:50;;;;;;;9.75;2.55;;;;;;;18.13;50.20;97217.53;2073909;28;20283;-68
2022/10/09 08:52:04;;;;;;;10.50;2.90;;;;;;;16.29;54.21;97215.69;2075433;28;20182;-69
2022/10/09 08:53:27;;;;;;;6.15;2.78;;;;;;;16.11;55.14;97205.31;2075201;28;20293;-68
2022/10/09 08:54:38;;;;;;;7.47;2.60;;;;;;;17.60;51.52;97209.53;2075639;28;20309;-68
2022/10/09 08:55:54;;;;;;;9.80;2.40;;;;;;;18.44;49.82;97210.22;2074232;28;20221;-66
2022/10/09 08:57:01;;;;;;;6.70;2.60;;;;;;;18.72;47.87;97205.69;2066752;28;20239;-67
2022/10/09 08:58:04;;;;;;;4.25;2.35;;;;;;;16.49;51.60;97215.38;2083595;28;20203;-68
2022/10/09 08:59:10;;;;;;;10.65;3.10;;;;;;;16.21;54.22;97205.59;2079203;28;20229;-67
2022/10/09 09:00:18;;;;;;;4.90;2.47;;;;;;;16.99;52.25;97201.88;2074602;28;20296;-66
2022/10/09 09:01:38;;;;;;;6.68;2.53;;;;;;;16.26;52.85;97211.44;2073227;28;20725;-67
2022/10/09 09:03:01;;;;;;;9.93;2.70;;;;;;;17.20;50.77;97212.88;2072324;28;20614;-66
2022/10/09 09:04:30;;;;;;;5.68;2.35;;;;;;;16.62;52.49;97201.44;2077801;28;20258;-67
2022/10/09 09:05:47;;;;;;;9.57;2.40;;;;;;;16.87;52.77;97199.97;2074857;28;20242;-67
2022/10/09 09:07:07;;;;;;;7.13;2.60;;;;;;;16.97;52.51;97216.94;2080257;28;20280;-68
2022/10/09 09:08:15;;;;;;;5.72;2.13;;;;;;;18.63;48.30;97211.59;2076375;28;20200;-68
2022/10/09 09:09:24;;;;;;;9.02;2.33;;;;;;;17.60;50.06;97205.06;2071610;28;20205;-67
2022/10/09 09:17:11;;;;;;;6.03;2.42;;;;;;;16.44;51.11;97187.59;2066122;28;20205;-68
2022/10/09 09:19:07;;;;;;;3.72;1.65;;;;;;;16.49;51.70;97203.97;2083643;28;21140;-67
2022/10/09 09:20:26;;;;;;;8.93;2.70;;;;;;;16.66;51.33;97195.06;2065498;28;20202;-67
2022/10/09 09:21:38;;;;;;;9.02;2.38;;;;;;;16.37;51.19;97196.81;2065937;28;20658;-67
2022/10/09 09:28:00;;;;;;;10.30;2.45;;;;;;;16.32;50.63;97190.00;2067329;28;20217;-67
2022/10/09 09:29:04;;;;;;;5.30;1.92;;;;;;;16.66;49.87;97181.88;2079282;28;20740;-68
2022/10/09 09:30:11;;;;;;;6.50;1.95;;;;;;;16.94;48.67;97188.13;2073524;28;20287;-66
2022/10/09 09:31:21;;;;;;;4.80;2.38;;;;;;;16.67;50.02;97183.59;2073392;28;20289;-67
2022/10/09 09:32:26;;;;;;;4.75;2.15;;;;;;;17.91;47.26;97195.16;2067201;28;20220;-67
2022/10/09 09:33:38;;;;;;;9.30;2.10;;;;;;;17.97;48.03;97187.78;2080729;28;20228;-66
2022/10/09 09:34:45;;;;;;;7.65;1.83;;;;;;;18.86;45.89;97176.47;2074532;28;20201;-66
2022/10/09 09:36:22;;;;;;;6.50;1.95;;;;;;;17.72;46.95;97179.66;2076622;28;20201;-68
2022/10/09 09:37:24;;;;;;;8.60;2.30;;;;;;;18.98;44.62;97142.19;2075649;28;20759;-67
2022/10/09 09:38:25;;;;;;;13.95;2.30;;;;;;;18.47;45.69;97185.38;2075069;28;20300;-67
2022/10/09 09:39:32;;;;;;;5.97;2.15;;;;;;;18.42;46.81;97159.22;2075092;28;20202;-67
2022/10/09 09:40:54;;;;;;;5.10;1.92;;;;;;;19.79;44.49;97179.66;2074207;28;20260;-66
2022/10/09 09:42:00;;;;;;;6.78;1.83;;;;;;;20.18;43.64;97177.69;2067631;28;20293;-67
2022/10/09 09:43:17;;;;;;;5.90;2.25;;;;;;;20.02;43.49;97172.66;2075023;28;20282;-67
2022/10/09 09:44:19;;;;;;;8.68;1.90;;;;;;;19.61;43.96;97148.25;2074284;28;20598;-68
2022/10/09 09:45:23;;;;;;;5.82;1.90;;;;;;;19.37;44.38;97174.72;2075827;28;20293;-67
2022/10/09 09:46:28;;;;;;;9.65;2.35;;;;;;;20.16;43.39;97175.16;2075449;28;20236;-67
2022/10/09 09:47:37;;;;;;;4.55;1.58;;;;;;;20.82;42.02;97173.72;2070490;28;20232;-67
2022/10/09 09:48:42;;;;;;;7.63;2.13;;;;;;;21.28;40.70;97174.53;2082406;28;20279;-67
2022/10/09 09:49:58;;;;;;;5.85;1.95;;;;;;;18.03;44.27;97164.47;2073834;28;20276;-67
2022/10/09 09:51:02;;;;;;;4.80;2.40;;;;;;;19.45;43.70;97158.28;2074585;28;20645;-66
2022/10/09 09:52:28;;;;;;;5.20;2.42;;;;;;;18.38;45.36;97176.25;2073644;28;20225;-67
2022/10/09 09:53:36;;;;;;;6.30;1.90;;;;;;;17.26;47.97;97157.06;2073387;28;20316;-67
2022/10/09 09:54:38;;;;;;;5.15;1.70;;;;;;;19.72;43.78;97166.84;2074765;28;20282;-67
2022/10/09 09:55:40;;;;;;;5.10;2.08;;;;;;;18.07;43.76;97128.13;2075453;28;20286;-70
2022/10/09 09:56:44;;;;;;;4.65;2.10;;;;;;;17.12;46.80;97160.59;2074004;28;20301;-69
2022/10/09 09:58:12;;;;;;;10.30;2.05;;;;;;;17.22;48.08;97165.31;2074411;28;20267;-67
2022/10/09 09:59:28;;;;;;;5.70;1.98;;;;;;;16.71;48.63;97158.72;2072192;28;20197;-68
2022/10/09 10:00:30;;;;;;;6.00;1.90;;;;;;;17.00;47.70;97161.38;2075183;28;20284;-68
2022/10/09 10:01:34;;;;;;;3.33;1.65;;;;;;;16.26;48.52;97121.84;2074292;28;20201;-70
2022/10/09 10:02:35;;;;;;;6.30;1.83;;;;;;;16.45;48.88;97140.03;2071904;28;20220;-67
2022/10/09 10:03:47;;;;;;;8.32;1.80;;;;;;;18.50;46.12;97142.84;2084709;28;20228;-67
2022/10/09 10:10:00;;;;;;;6.82;2.20;;;;;;;18.32;45.12;97139.66;2075852;28;20181;-67
2022/10/09 10:11:06;;;;;;;3.38;1.50;;;;;;;17.40;47.58;97142.16;2074289;28;20293;-65
2022/10/09 10:12:16;;;;;;;12.75;2.20;;;;;;;18.11;46.15;97138.38;2065543;28;20716;-66
2022/10/09 10:13:21;;;;;;;6.15;1.92;;;;;;;19.95;43.96;97126.38;2080598;28;20707;-68
2022/10/09 10:14:23;;;;;;;3.80;1.60;;;;;;;20.28;43.39;97133.59;2078221;28;20284;-69
2022/10/09 10:15:30;;;;;;;7.22;1.88;;;;;;;19.57;44.00;97117.66;2075584;28;20228;-70
2022/10/09 10:23:03;;;;;;;9.45;2.55;;;;;;;21.93;40.86;97126.78;2075950;28;20409;-67
2022/10/09 10:24:13;;;;;;;6.80;2.55;;;;;;;23.84;37.93;97128.06;2075252;28;20821;-67
2022/10/09 10:25:18;;;;;;;7.78;2.20;;;;;;;24.24;36.61;97115.53;2072706;28;20649;-66
2022/10/09 10:26:28;;;;;;;4.50;1.75;;;;;;;23.72;37.21;97118.50;2067250;28;20733;-66
2022/10/09 10:27:38;;;;;;;6.38;2.25;;;;;;;23.50;37.09;97111.63;2067739;28;20311;-67
2022/10/09 10:34:03;;;;;;;5.53;2.33;;;;;;;24.26;36.71;97113.59;2073098;28;20209;-66
2022/10/09 10:35:15;;;;;;;9.00;1.90;;;;;;;26.29;34.41;97112.78;2072668;28;20604;-66
2022/10/09 10:36:17;;;;;;;4.30;1.85;;;;;;;27.14;33.61;97112.94;2071592;28;20276;-66
2022/10/09 10:37:30;;;;;;;6.30;1.90;;;;;;;26.58;33.47;97123.19;2073418;28;20328;-66
2022/10/09 10:38:42;;;;;;;5.07;1.75;;;;;;;26.16;34.25;97116.72;2073077;28;20277;-66
2022/10/09 10:39:58;;;;;;;9.30;2.03;;;;;;;23.42;35.77;97109.66;2075943;28;20640;-70
2022/10/09 10:41:35;;;;;;;4.20;1.90;;;;;;;23.51;37.59;97111.47;2074428;28;20283;-69
2022/10/09 10:42:47;;;;;;;12.30;2.00;;;;;;;23.06;37.29;97111.91;2071366;28;20319;-69
2022/10/09 10:43:53;;;;;;;2.53;1.30;;;;;;;24.41;36.27;97111.31;2081425;28;20749;-69
2022/10/09 10:45:06;;;;;;;4.60;1.80;;;;;;;23.86;37.21;97099.44;2070426;28;20289;-69
2022/10/09 10:53:12;;;;;;;7.97;1.60;;;;;;;25.25;33.41;97099.78;2073804;28;20241;-67
2022/10/09 10:54:17;;;;;;;8.45;1.77;;;;;;;22.82;37.10;97107.78;2074158;28;20225;-67
2022/10/09 10:55:47;;;;;;;4.65;1.55;;;;;;;21.97;38.59;97097.19;2073009;28;20281;-67
2022/10/09 10:57:22;;;;;;;6.82;4.10;;;;;;;20.48;40.31;97105.53;2065002;28;20253;-69
2022/10/09 11:05:21;;;;;;;5.80;1.38;;;;;;;20.91;39.02;97098.66;2072509;28;20244;-69
2022/10/09 11:06:37;;;;;;;4.53;1.45;;;;;;;19.63;41.91;97076.63;2074790;28;20201;-69
2022/10/09 11:08:13;;;;;;;6.47;1.50;;;;;;;21.82;40.00;97083.34;2074481;28;20702;-69
2022/10/09 11:09:26;;;;;;;6.88;1.50;;;;;;;21.79;38.39;97088.94;2075524;28;20342;-70
2022/10/09 11:10:49;;;;;;;7.70;1.42;;;;;;;22.22;38.43;97081.81;2075420;28;20284;-69
2022/10/09 11:12:08;;;;;;;9.18;1.83;;;;;;;21.32;38.71;97080.41;2065614;28;20201;-70
2022/10/09 11:13:38;;;;;;;4.45;1.23;;;;;;;19.93;41.35;97080.59;2076337;28;20834;-71
2022/10/09 11:14:56;;;;;;;7.00;1.30;;;;;;;19.50;41.56;97085.50;2076424;28;20219;-70
2022/10/09 11:15:57;;;;;;;4.32;1.55;;;;;;;20.65;39.25;97085.63;2070688;28;20312;-70
2022/10/09 11:22:07;;;;;;;5.68;1.35;;;;;;;18.93;43.65;97071.94;2073788;28;20181;-70
2022/10/09 11:23:47;;;;;;;6.53;1.73;;;;;;;19.05;42.63;97072.84;2074623;28;20790;-71
2022/10/09 11:24:57;;;;;;;6.28;2.05;;;;;;;18.03;44.61;97064.06;2072792;28;20239;-70
2022/10/09 11:26:17;;;;;;;4.20;1.50;;;;;;;17.91;44.69;97070.97;2073893;28;20194;-70
2022/10/09 11:27:24;;;;;;;2.53;1.20;;;;;;;18.49;45.05;97067.13;2067940;28;20226;-69
2022/10/09 11:28:43;;;;;;;4.25;1.38;;;;;;;17.81;44.35;97040.03;2081353;28;20781;-71
2022/10/09 11:29:57;;;;;;;4.57;1.23;;;;;;;19.60;42.72;97069.75;2072305;28;20227;-72
2022/10/09 11:31:08;;;;;;;5.18;1.40;;;;;;;19.19;42.72;97021.56;2076682;28;20204;-68
2022/10/09 11:32:28;;;;;;;5.00;1.75;;;;;;;18.70;43.20;97067.41;2066263;28;20227;-69
2022/10/09 11:33:56;;;;;;;7.00;1.55;;;;;;;17.56;45.75;97058.38;2083404;28;20196;-71
2022/10/09 11:35:28;;;;;;;7.53;2.10;;;;;;;17.81;44.85;97005.69;2071149;28;20201;-69
2022/10/09 11:37:16;;;;;;;5.82;1.52;;;;;;;18.88;43.31;97054.66;2070284;28;20205;-70
2022/10/09 11:38:32;;;;;;;10.00;1.88;;;;;;;18.98;44.84;97047.81;2072088;28;20904;-70
2022/10/09 11:39:38;;;;;;;2.95;1.20;;;;;;;20.64;40.92;97052.09;2074398;28;20198;-70
2022/10/09 11:40:41;;;;;;;6.53;1.42;;;;;;;19.24;42.54;97058.28;2074231;28;20241;-72
2022/10/09 11:41:53;;;;;;;4.53;1.77;;;;;;;17.78;44.89;97041.91;2070350;28;20581;-70
2022/10/09 11:43:26;;;;;;;15.25;1.50;;;;;;;19.18;42.08;97048.13;2076803;28;20741;-71
2022/10/09 11:44:36;;;;;;;8.48;1.20;;;;;;;19.61;41.88;97036.16;2073529;28;20204;-69
2022/10/09 11:45:49;;;;;;;8.93;1.80;;;;;;;19.50;42.25;97032.53;2072563;28;20715;-70
2022/10/09 11:46:57;;;;;;;4.00;1.10;;;;;;;19.28;42.29;97021.84;2063952;28;20241;-68
2022/10/09 11:48:07;;;;;;;8.38;1.30;;;;;;;20.74;40.20;97049.59;2074789;28;20292;-70
2022/10/09 11:49:22;;;;;;;8.10;1.52;;;;;;;18.51;42.58;97018.47;2077428;28;20237;-70
2022/10/09 11:50:47;;;;;;;4.60;1.45;;;;;;;17.66;44.91;97026.06;2073696;28;20212;-70
2022/10/09 11:52:15;;;;;;;7.00;1.52;;;;;;;19.55;41.80;97037.47;2074822;28;20612;-69
2022/10/09 11:53:25;;;;;;;2.60;1.10;;;;;;;19.47;41.86;97029.25;2071070;28;20255;-69
2022/10/09 11:54:27;;;;;;;3.70;1.45;;;;;;;20.85;41.04;97038.97;2075577;28;20204;-69
2022/10/09 11:55:31;;;;;;;5.05;1.33;;;;;;;19.04;42.17;97033.25;2073722;28;20289;-71
2022/10/09 11:56:33;;;;;;;3.03;1.35;;;;;;;19.03;42.30;96999.81;2075680;28;20342;-70
2022/10/09 11:57:35;;;;;;;12.43;1.70;;;;;;;18.42;43.28;97008.53;2072037;28;20336;-69
2022/10/09 11:58:38;;;;;;;7.30;1.50;;;;;;;18.51;44.29;97029.06;2074492;28;20257;-68
2022/10/09 11:59:43;;;;;;;10.43;1.85;;;;;;;19.79;41.63;97029.47;2073081;28;20202;-69
2022/10/09 12:00:49;;;;;;;3.55;1.05;;;;;;;19.23;41.78;97023.00;2072588;28;20229;-68
2022/10/09 12:01:51;;;;;;;6.88;1.52;;;;;;;18.34;44.34;97019.66;2068938;28;20193;-68
2022/10/09 12:02:59;;;;;;;6.68;1.52;;;;;;;18.19;44.25;97021.56;2077036;28;20293;-69
2022/10/09 12:11:06;;;;;;;5.13;1.85;;;;;;;18.90;43.71;96999.88;2075881;28;20178;-68
2022/10/09 12:12:14;;;;;;;5.35;1.52;;;;;;;18.75;43.15;96999.16;2068265;28;20224;-68
2022/10/09 12:13:48;;;;;;;3.75;1.20;;;;;;;18.43;44.15;97000.50;2082761;28;20205;-69
2022/10/09 12:14:51;;;;;;;4.80;1.35;;;;;;;20.07;42.38;96990.28;2077539;28;20623;-69
2022/10/09 12:15:55;;;;;;;2.97;1.42;;;;;;;21.88;39.50;97001.41;2080755;28;20560;-68
2022/10/09 12:16:58;;;;;;;4.15;1.30;;;;;;;21.11;38.68;97000.69;2072120;28;20205;-69
2022/10/09 12:18:15;;;;;;;7.72;1.20;;;;;;;20.33;41.05;96992.72;2083938;28;20231;-69
2022/10/09 12:19:23;;;;;;;6.75;1.50;;;;;;;20.37;40.62;96988.84;2081828;28;20210;-69
2022/10/09 12:20:26;;;;;;;9.50;1.85;;;;;;;19.53;42.38;96978.50;2076905;28;20336;-68
2022/10/09 12:21:35;;;;;;;5.32;1.23;;;;;;;19.41;42.58;96994.34;2074697;28;20672;-69
2022/10/09 12:22:44;;;;;;;3.22;1.30;;;;;;;18.75;42.88;96994.72;2073724;28;20319;-72
2022/10/09 12:24:12;;;;;;;6.70;1.70;;;;;;;18.26;44.19;96977.06;2076192;28;20210;-69
2022/10/09 12:25:39;;;;;;;9.75;1.17;;;;;;;19.35;43.21;96984.19;2076671;28;20280;-68
2022/10/09 12:26:41;;;;;;;12.13;2.35;;;;;;;20.77;41.42;96984.84;2075088;28;20276;-68
2022/10/09 12:27:43;;;;;;;7.22;1.55;;;;;;;21.14;40.34;96982.69;2072080;28;20311;-68
2022/10/09 12:28:48;;;;;;;6.78;1.33;;;;;;;20.77;40.63;96988.31;2084529;28;20287;-69
2022/10/09 12:29:57;;;;;;;6.45;1.50;;;;;;;20.00;40.73;96975.84;2076504;28;20193;-70
2022/10/09 12:31:02;;;;;;;4.80;1.20;;;;;;;19.83;41.82;96983.28;2075171;28;20225;-69
2022/10/09 12:32:11;;;;;;;3.35;1.25;;;;;;;19.08;42.84;96964.13;2066223;28;20769;-69
2022/10/09 12:33:26;;;;;;;3.13;1.40;;;;;;;19.37;42.32;96973.50;2083714;28;20259;-70
2022/10/09 12:41:19;;;;;;;4.90;1.20;;;;;;;20.19;40.67;96959.31;2075511;28;20286;-72
2022/10/09 12:42:23;;;;;;;9.45;1.35;;;;;;;20.01;41.79;96964.25;2065494;28;20875;-70
2022/10/09 12:43:27;;;;;;;5.13;1.35;;;;;;;20.05;40.93;96957.75;2075223;28;20237;-71
2022/10/09 12:44:40;;;;;;;2.53;1.08;;;;;;;18.96;43.57;96943.88;2076388;28;20256;-71
2022/10/09 12:45:44;;;;;;;10.95;1.13;;;;;;;20.27;41.89;96964.03;2078496;28;20232;-71
2022/10/09 12:52:04;;;;;;;4.03;1.10;;;;;;;17.89;44.72;96954.03;2076172;28;20178;-70
2022/10/09 12:53:13;;;;;;;3.80;1.55;;;;;;;17.33;45.75;96962.25;2075494;28;20285;-70
2022/10/09 12:54:17;;;;;;;4.63;1.30;;;;;;;18.53;44.41;96944.31;2081666;28;20223;-69
2022/10/09 12:55:23;;;;;;;7.72;1.13;;;;;;;18.70;43.07;96953.66;2075209;28;20252;-71
2022/10/09 12:56:30;;;;;;;4.75;1.10;;;;;;;18.17;43.70;96951.28;2074338;28;20233;-69
2022/10/09 12:57:33;;;;;;;6.88;1.20;;;;;;;17.62;45.92;96943.56;2069845;28;20308;-69
2022/10/09 12:58:37;;;;;;;11.43;1.85;;;;;;;19.09;43.21;96946.44;2078901;28;20331;-69
2022/10/09 12:59:39;;;;;;;4.65;1.20;;;;;;;19.11;42.64;96933.94;2075540;28;20201;-70
2022/10/09 13:00:41;;;;;;;3.30;1.20;;;;;;;18.48;43.40;96906.81;2075175;28;20709;-69
2022/10/09 13:01:45;;;;;;;8.60;1.55;;;;;;;19.85;41.59;96946.06;2071324;28;20285;-69
2022/10/09 13:02:47;;;;;;;4.65;1.50;;;;;;;18.63;42.94;96932.13;2068365;28;20224;-68
2022/10/09 13:04:03;;;;;;;5.70;1.45;;;;;;;18.42;43.90;96945.94;2079915;28;20205;-70
2022/10/09 13:05:05;;;;;;;3.70;1.25;;;;;;;18.00;44.34;96932.16;2074816;28;20234;-69
2022/10/09 13:06:14;;;;;;;4.22;1.25;;;;;;;18.50;44.05;96936.59;2078305;28;20296;-70
2022/10/09 13:07:20;;;;;;;6.38;1.40;;;;;;;19.48;43.00;96935.63;2074763;28;20334;-68
2022/10/09 13:08:31;;;;;;;7.95;1.60;;;;;;;18.22;43.26;96938.56;2073611;28;20289;-71
2022/10/09 13:09:34;;;;;;;8.25;1.33;;;;;;;18.13;44.57;96934.78;2073520;28;20723;-69
2022/10/09 13:10:36;;;;;;;5.97;1.33;;;;;;;19.19;42.89;96922.78;2075841;28;20201;-68
2022/10/09 13:11:44;;;;;;;7.93;1.48;;;;;;;20.37;41.38;96933.16;2074833;28;20229;-69
2022/10/09 13:12:54;;;;;;;4.15;1.10;;;;;;;19.99;40.43;96924.63;2072327;28;20311;-69
2022/10/09 13:13:55;;;;;;;3.53;1.10;;;;;;;18.75;43.46;96878.34;2072161;28;20627;-70
2022/10/09 13:14:59;;;;;;;3.70;1.30;;;;;;;19.15;43.12;96921.34;2074249;28;20289;-69
2022/10/09 13:16:08;;;;;;;3.38;1.35;;;;;;;18.36;44.34;96927.03;2076114;28;20323;-70
2022/10/09 13:17:29;;;;;;;12.88;1.15;;;;;;;18.65;43.29;96913.50;2068275;28;20196;-70
2022/10/09 13:18:32;;;;;;;6.00;1.17;;;;;;;18.70;43.21;96885.78;2083385;28;20636;-70
2022/10/09 13:19:34;;;;;;;7.32;1.40;;;;;;;17.47;45.01;96924.34;2078271;28;20288;-70
2022/10/09 13:20:36;;;;;;;9.75;1.33;;;;;;;17.59;45.45;96920.03;2076286;28;20213;-72
2022/10/09 13:21:37;;;;;;;2.28;1.27;;;;;;;18.00;44.66;96913.66;2076748;28;20617;-71
2022/10/09 13:28:03;;;;;;;3.78;1.40;;;;;;;18.58;44.15;96907.81;2066097;28;20196;-69
2022/10/09 13:29:06;;;;;;;8.30;1.40;;;;;;;17.28;46.21;96907.13;2081140;28;20196;-72
2022/10/09 13:30:10;;;;;;;6.03;1.10;;;;;;;18.14;45.62;96886.28;2075494;28;20586;-69
2022/10/09 13:31:12;;;;;;;5.95;1.83;;;;;;;17.88;45.35;96904.78;2074849;28;20197;-70
2022/10/09 13:32:15;;;;;;;3.60;1.13;;;;;;;18.10;45.67;96903.31;2066687;28;20657;-70
2022/10/09 13:33:17;;;;;;;3.53;1.10;;;;;;;18.30;43.97;96864.00;2084202;28;20265;-70
2022/10/09 13:34:18;;;;;;;4.93;1.45;;;;;;;18.56;44.24;96896.50;2080716;28;20293;-69
2022/10/09 13:35:20;;;;;;;14.02;1.27;;;;;;;18.22;44.87;96899.78;2078636;28;20252;-70
2022/10/09 13:36:21;;;;;;;8.40;1.63;;;;;;;18.38;44.64;96890.75;2079429;28;20663;-70
2022/10/09 13:37:26;;;;;;;5.63;1.38;;;;;;;18.61;44.41;96899.66;2074087;28;20259;-71
2022/10/09 13:38:28;;;;;;;6.45;1.67;;;;;;;18.63;44.76;96854.56;2076588;28;20285;-70
2022/10/09 13:39:35;;;;;;;6.57;1.42;;;;;;;19.05;43.84;96855.00;2075042;28;20289;-70
2022/10/09 13:40:37;;;;;;;3.97;1.35;;;;;;;20.63;41.56;96888.63;2073123;28;20198;-70
2022/10/09 13:41:40;;;;;;;4.82;1.45;;;;;;;21.68;39.43;96889.69;2073830;28;20206;-69
2022/10/09 13:42:52;;;;;;;4.90;1.00;;;;;;;20.78;40.25;96883.03;2071142;28;20397;-69
2022/10/09 13:43:54;;;;;;;7.07;1.40;;;;;;;20.56;41.77;96877.66;2072788;28;20672;-70
2022/10/09 13:44:55;;;;;;;5.38;1.60;;;;;;;19.73;42.38;96874.50;2071654;28;20280;-70
2022/10/09 13:45:57;;;;;;;3.40;1.17;;;;;;;20.85;41.14;96881.56;2072693;28;20742;-70
2022/10/09 13:47:02;;;;;;;11.05;1.58;;;;;;;20.46;40.64;96871.41;2064802;28;20193;-70
2022/10/09 13:48:04;;;;;;;4.60;1.40;;;;;;;19.23;42.40;96885.34;2077389;28;20238;-70
2022/10/09 13:49:05;;;;;;;6.15;1.20;;;;;;;18.47;44.63;96878.66;2078421;28;20224;-70
2022/10/09 13:50:07;;;;;;;3.97;1.15;;;;;;;17.69;45.47;96860.34;2072317;28;20199;-71
2022/10/09 13:51:08;;;;;;;4.00;1.30;;;;;;;17.42;45.81;96874.50;2072697;28;20288;-71
2022/10/09 13:52:10;;;;;;;2.88;1.00;;;;;;;18.41;44.61;96853.50;2079702;28;20288;-70
2022/10/09 13:53:11;;;;;;;6.93;1.50;;;;;;;17.93;45.38;96860.44;2076081;28;20291;-70
2022/10/09 13:54:13;;;;;;;4.95;1.50;;;;;;;18.52;45.76;96865.97;2075173;28;20260;-70
2022/10/09 13:55:14;;;;;;;3.35;1.15;;;;;;;19.06;44.06;96864.66;2075912;28;20397;-70
2022/10/09 13:56:16;;;;;;;6.22;1.50;;;;;;;19.30;43.15;96855.78;2075394;28;20255;-69
2022/10/09 13:57:17;;;;;;;10.00;2.00;;;;;;;19.01;43.97;96875.56;2069784;28;20308;-71
2022/10/09 13:58:20;;;;;;;7.05;1.38;;;;;;;18.14;45.65;96864.31;2084413;28;20217;-71
2022/10/09 13:59:23;;;;;;;4.70;2.03;;;;;;;18.48;45.29;96856.56;2079928;28;20229;-69
2022/10/09 14:00:24;;;;;;;3.38;1.17;;;;;;;18.22;44.92;96849.59;2074736;28;20342;-72
2022/10/09 14:01:26;;;;;;;6.03;1.42;;;;;;;18.13;45.62;96865.25;2074734;28;20239;-73
2022/10/09 14:02:28;;;;;;;4.00;1.60;;;;;;;18.71;44.56;96868.91;2072355;28;20675;-69
2022/10/09 14:03:29;;;;;;;6.35;1.58;;;;;;;17.55;46.20;96852.56;2082186;28;20235;-69
2022/10/09 14:11:06;;;;;;;3.85;1.48;;;;;;;19.13;44.23;96860.56;2076371;28;20612;-69
2022/10/09 14:12:08;;;;;;;8.93;1.20;;;;;;;19.07;43.72;96845.13;2068611;28;20666;-71
2022/10/09 14:13:14;;;;;;;5.10;1.70;;;;;;;19.02;43.98;96839.34;2081195;28;20196;-69
2022/10/09 14:14:15;;;;;;;17.30;1.35;;;;;;;19.78;43.41;96852.91;2079768;28;20291;-69
2022/10/09 14:15:17;;;;;;;3.92;1.20;;;;;;;19.37;43.91;96857.00;2075968;28;20597;-70
2022/10/09 14:23:05;;;;;;;4.97;1.40;;;;;;;18.10;45.70;96839.88;2075521;28;20287;-70
2022/10/09 14:24:07;;;;;;;7.43;1.23;;;;;;;17.67;45.79;96825.25;2076636;28;20281;-70
2022/10/09 14:25:09;;;;;;;2.75;1.10;;;;;;;17.50;45.52;96831.75;2071043;28;20439;-70
2022/10/09 14:26:10;;;;;;;4.07;1.20;;;;;;;17.60;46.06;96821.38;2072068;28;20235;-70
2022/10/09 14:27:11;;;;;;;6.55;1.38;;;;;;;17.82;45.91;96804.03;2063506;28;20296;-69